Time;durP1;ratioP1;P1;durP2;ratioP2;P2;SDS_P1;SDS_P2;PMS_P1;PMS_P2;Temp;Humidity;BMP_temperature;BMP_pressure;BME280_temperature;BME280_humidity;BME280_pressure;Samples;Min_cycle;Max_cycle;Signal;HPM_P1;HPM_P2
2023/03/20 00:00:24;;;;;;;30.57;14.93;;;;;;;;;;734172;190;633495;-77
2023/03/20 00:02:51;;;;;;;24.27;15.57;;;;;;;;;;726643;190;629083;-77
2023/03/20 00:05:17;;;;;;;20.53;14.60;;;;;;;;;;726964;193;631711;-79
2023/03/20 00:07:42;;;;;;;18.70;13.50;;;;;;;;;;731908;192;621305;-79
2023/03/20 00:10:08;;;;;;;20.03;13.60;;;;;;;;;;727651;192;627071;-78
2023/03/20 00:12:34;;;;;;;20.23;15.30;;;;;;;;;;727103;195;629974;-79
2023/03/20 00:15:00;;;;;;;20.03;14.47;;;;;;;;;;739965;190;625339;-76
2023/03/20 00:17:26;;;;;;;19.87;13.90;;;;;;;;;;740053;190;637062;-79
2023/03/20 00:19:52;;;;;;;21.23;15.03;;;;;;;;;;730148;190;633950;-78
2023/03/20 00:22:17;;;;;;;18.93;13.77;;;;;;;;;;728020;194;627321;-77
2023/03/20 00:24:43;;;;;;;20.97;12.93;;;;;;;;;;731500;190;635741;-79
2023/03/20 00:27:10;;;;;;;21.20;15.57;;;;;;;;;;727346;193;658336;-77
2023/03/20 00:29:36;;;;;;;21.80;15.23;;;;;;;;;;728679;191;626545;-77
2023/03/20 00:32:01;;;;;;;21.50;15.60;;;;;;;;;;741455;191;623090;-78
2023/03/20 00:34:30;;;;;;;21.83;15.20;;;;;;;;;;730707;191;633527;-78
2023/03/20 00:36:55;;;;;;;23.43;15.37;;;;;;;;;;732620;191;625257;-79
2023/03/20 00:39:20;;;;;;;23.50;14.10;;;;;;;;;;743316;190;628993;-78
2023/03/20 00:41:47;;;;;;;21.97;15.87;;;;;;;;;;740685;190;636603;-79
2023/03/20 00:44:22;;;;;;;21.53;15.40;;;;;;;;;;728191;193;624703;-79
2023/03/20 00:46:48;;;;;;;17.07;14.03;;;;;;;;;;731420;192;637213;-79
2023/03/20 00:49:13;;;;;;;18.63;13.10;;;;;;;;;;735481;191;618118;-79
2023/03/20 00:51:41;;;;;;;18.37;14.07;;;;;;;;;;730457;193;627066;-79
2023/03/20 00:54:05;;;;;;;24.93;13.80;;;;;;;;;;731602;191;629896;-80
2023/03/20 00:56:31;;;;;;;23.33;14.60;;;;;;;;;;734611;191;620810;-79
2023/03/20 00:58:57;;;;;;;21.90;13.90;;;;;;;;;;729874;191;616702;-78
2023/03/20 01:01:23;;;;;;;23.60;14.63;;;;;;;;;;727026;194;637813;-77
2023/03/20 01:03:49;;;;;;;22.20;16.60;;;;;;;;;;730927;191;644254;-79
2023/03/20 01:06:15;;;;;;;21.83;15.00;;;;;;;;;;742637;191;627683;-79
2023/03/20 01:08:40;;;;;;;22.20;15.30;;;;;;;;;;738898;191;644433;-77
2023/03/20 01:11:06;;;;;;;22.17;15.13;;;;;;;;;;733093;191;617741;-79
2023/03/20 01:13:32;;;;;;;21.40;13.93;;;;;;;;;;735359;191;645851;-77
2023/03/20 01:15:58;;;;;;;26.67;16.27;;;;;;;;;;739266;190;635031;-78
2023/03/20 01:18:24;;;;;;;25.63;16.83;;;;;;;;;;738442;191;625916;-79
2023/03/20 01:20:51;;;;;;;22.83;15.40;;;;;;;;;;728198;191;617672;-78
2023/03/20 01:23:15;;;;;;;24.13;16.40;;;;;;;;;;727344;194;623955;-79
2023/03/20 01:25:41;;;;;;;22.70;15.83;;;;;;;;;;740567;190;626124;-78
2023/03/20 01:28:12;;;;;;;22.97;14.63;;;;;;;;;;738844;191;631460;-78
2023/03/20 01:30:38;;;;;;;24.90;17.00;;;;;;;;;;731858;190;629770;-78
2023/03/20 01:33:19;;;;;;;24.37;17.57;;;;;;;;;;727860;190;627978;-78
2023/03/20 01:35:45;;;;;;;24.30;16.53;;;;;;;;;;727792;190;629805;-76
2023/03/20 01:38:10;;;;;;;25.47;14.70;;;;;;;;;;727416;194;636642;-76
2023/03/20 01:40:36;;;;;;;20.53;14.53;;;;;;;;;;742430;191;622773;-79
2023/03/20 01:43:02;;;;;;;23.87;15.90;;;;;;;;;;739802;191;627911;-79
2023/03/20 01:45:29;;;;;;;22.20;13.83;;;;;;;;;;729496;190;634586;-76
2023/03/20 01:47:54;;;;;;;28.53;15.70;;;;;;;;;;727495;191;622639;-79
2023/03/20 01:50:21;;;;;;;23.57;15.47;;;;;;;;;;730646;191;633255;-79
2023/03/20 01:52:47;;;;;;;23.77;16.53;;;;;;;;;;727449;191;624669;-77
2023/03/20 01:55:13;;;;;;;22.37;16.33;;;;;;;;;;727202;191;638154;-78
2023/03/20 01:57:39;;;;;;;25.20;16.20;;;;;;;;;;731045;194;620164;-79
2023/03/20 02:00:04;;;;;;;22.87;15.40;;;;;;;;;;727232;192;640016;-76
2023/03/20 02:02:30;;;;;;;21.83;14.93;;;;;;;;;;726823;192;632032;-79
2023/03/20 02:04:57;;;;;;;19.60;14.07;;;;;;;;;;735633;191;621201;-79
2023/03/20 02:07:23;;;;;;;21.60;14.57;;;;;;;;;;731733;191;623708;-78
2023/03/20 02:09:49;;;;;;;23.10;15.50;;;;;;;;;;730012;191;621995;-79
2023/03/20 02:12:15;;;;;;;22.10;14.27;;;;;;;;;;734013;192;622145;-79
2023/03/20 02:14:40;;;;;;;29.00;15.00;;;;;;;;;;734573;191;629564;-77
2023/03/20 02:17:06;;;;;;;24.30;15.93;;;;;;;;;;727067;194;632329;-79
2023/03/20 02:19:47;;;;;;;21.27;15.17;;;;;;;;;;727108;191;632072;-80
2023/03/20 02:22:29;;;;;;;24.03;14.10;;;;;;;;;;732801;191;630020;-78
2023/03/20 02:25:01;;;;;;;19.90;14.20;;;;;;;;;;720388;190;630900;-79
2023/03/20 02:27:43;;;;;;;19.20;14.33;;;;;;;;;;742618;190;639256;-79
2023/03/20 02:30:24;;;;;;;17.57;12.83;;;;;;;;;;743502;187;609400;-79
2023/03/20 02:32:55;;;;;;;18.90;14.60;;;;;;;;;;743051;190;626555;-78
2023/03/20 02:35:27;;;;;;;21.13;14.93;;;;;;;;;;740813;187;628976;-77
2023/03/20 02:38:09;;;;;;;25.33;15.10;;;;;;;;;;732680;192;629541;-79
2023/03/20 02:40:35;;;;;;;25.87;15.20;;;;;;;;;;736063;190;634206;-77
2023/03/20 02:43:02;;;;;;;23.43;16.83;;;;;;;;;;737675;191;633846;-78
2023/03/20 02:45:28;;;;;;;17.87;12.80;;;;;;;;;;733911;191;616376;-79
2023/03/20 02:48:11;;;;;;;21.67;14.80;;;;;;;;;;729378;190;619161;-79
2023/03/20 02:50:37;;;;;;;23.90;17.80;;;;;;;;;;729373;192;628002;-79
2023/03/20 02:53:05;;;;;;;23.60;15.67;;;;;;;;;;727388;191;631842;-79
2023/03/20 02:55:32;;;;;;;18.70;13.70;;;;;;;;;;735898;187;622942;-77
2023/03/20 02:58:02;;;;;;;25.50;16.03;;;;;;;;;;732348;191;621169;-80
2023/03/20 03:00:34;;;;;;;22.33;15.20;;;;;;;;;;733298;190;632892;-78
2023/03/20 03:02:58;;;;;;;23.97;15.67;;;;;;;;;;737310;190;633391;-78
2023/03/20 03:05:24;;;;;;;17.47;13.73;;;;;;;;;;732316;191;638287;-80
2023/03/20 03:07:50;;;;;;;23.73;14.57;;;;;;;;;;741072;191;634419;-78
2023/03/20 03:10:16;;;;;;;24.73;16.80;;;;;;;;;;728451;191;625634;-74
2023/03/20 03:12:42;;;;;;;22.97;16.40;;;;;;;;;;727031;194;636086;-77
2023/03/20 03:15:23;;;;;;;25.10;16.27;;;;;;;;;;738014;190;628408;-80
2023/03/20 03:17:49;;;;;;;27.23;16.40;;;;;;;;;;741072;190;634910;-79
2023/03/20 03:20:18;;;;;;;22.47;17.00;;;;;;;;;;730665;191;626826;-79
2023/03/20 03:22:44;;;;;;;19.97;14.90;;;;;;;;;;726776;193;632545;-78
2023/03/20 03:25:10;;;;;;;23.17;15.77;;;;;;;;;;735392;191;615025;-78
2023/03/20 03:27:36;;;;;;;19.87;15.23;;;;;;;;;;726783;190;631728;-79
2023/03/20 03:30:02;;;;;;;27.60;17.40;;;;;;;;;;725231;192;636542;-79
2023/03/20 03:32:28;;;;;;;27.10;16.03;;;;;;;;;;736856;191;632120;-79
2023/03/20 03:34:54;;;;;;;25.13;16.40;;;;;;;;;;742905;191;620996;-77
2023/03/20 03:37:26;;;;;;;25.77;16.47;;;;;;;;;;738598;191;636161;-76
2023/03/20 03:39:51;;;;;;;25.70;16.80;;;;;;;;;;738244;191;684143;-79
2023/03/20 03:42:22;;;;;;;25.48;16.08;;;;;;;;;;743369;187;664302;-79
2023/03/20 03:44:51;;;;;;;23.50;15.90;;;;;;;;;;743855;188;617653;-79
2023/03/20 03:47:19;;;;;;;21.90;15.90;;;;;;;;;;728143;191;633328;-79
2023/03/20 03:49:46;;;;;;;22.77;15.30;;;;;;;;;;735763;191;620894;-79
2023/03/20 03:52:12;;;;;;;24.90;16.50;;;;;;;;;;730018;195;628892;-78
2023/03/20 03:54:39;;;;;;;29.20;16.30;;;;;;;;;;728968;190;633730;-79
2023/03/20 03:57:04;;;;;;;21.40;14.47;;;;;;;;;;741522;190;656868;-79
2023/03/20 03:59:33;;;;;;;23.43;15.97;;;;;;;;;;739573;187;629044;-79
2023/03/20 04:02:00;;;;;;;24.60;15.40;;;;;;;;;;733307;190;659191;-77
2023/03/20 04:04:25;;;;;;;23.00;14.20;;;;;;;;;;737716;188;631326;-79
2023/03/20 04:06:51;;;;;;;22.30;15.33;;;;;;;;;;727058;193;636892;-78
2023/03/20 04:09:16;;;;;;;21.33;14.10;;;;;;;;;;735530;193;616571;-79
2023/03/20 04:11:42;;;;;;;22.10;14.18;;;;;;;;;;739341;191;627036;-79
2023/03/20 04:14:08;;;;;;;21.73;15.57;;;;;;;;;;732249;191;637411;-78
2023/03/20 04:16:34;;;;;;;21.00;15.50;;;;;;;;;;738028;191;635482;-78
2023/03/20 04:19:00;;;;;;;24.90;15.53;;;;;;;;;;743012;191;620537;-79
2023/03/20 04:21:26;;;;;;;20.10;14.40;;;;;;;;;;731905;191;638122;-76
2023/03/20 04:23:51;;;;;;;25.57;14.97;;;;;;;;;;737124;191;622356;-77
2023/03/20 04:26:17;;;;;;;21.37;14.33;;;;;;;;;;733521;191;634092;-78
2023/03/20 04:28:43;;;;;;;21.30;13.60;;;;;;;;;;727046;191;627985;-79
2023/03/20 04:31:09;;;;;;;25.03;16.73;;;;;;;;;;726656;193;698841;-79
2023/03/20 04:33:35;;;;;;;24.10;16.07;;;;;;;;;;730708;194;630435;-78
2023/03/20 04:36:01;;;;;;;20.77;14.27;;;;;;;;;;734077;191;629746;-79
2023/03/20 04:38:26;;;;;;;22.10;15.63;;;;;;;;;;729325;191;634078;-78
2023/03/20 04:40:53;;;;;;;23.75;15.48;;;;;;;;;;728576;190;662680;-78
2023/03/20 04:43:19;;;;;;;21.20;13.70;;;;;;;;;;742929;191;639160;-79
2023/03/20 04:45:44;;;;;;;21.20;14.10;;;;;;;;;;738392;188;633014;-79
2023/03/20 04:48:10;;;;;;;23.43;15.97;;;;;;;;;;737288;191;625143;-78
2023/03/20 04:50:36;;;;;;;19.77;13.63;;;;;;;;;;741691;191;621707;-79
2023/03/20 04:53:02;;;;;;;20.27;14.10;;;;;;;;;;737753;190;629965;-79
2023/03/20 04:55:28;;;;;;;21.77;14.70;;;;;;;;;;732141;190;684657;-79
2023/03/20 04:57:54;;;;;;;22.10;15.40;;;;;;;;;;731577;193;623491;-79
2023/03/20 05:00:20;;;;;;;21.63;15.03;;;;;;;;;;735999;190;655845;-79
2023/03/20 05:02:46;;;;;;;19.60;12.80;;;;;;;;;;732827;190;642412;-78
2023/03/20 05:05:11;;;;;;;31.23;14.90;;;;;;;;;;732632;190;644706;-78
2023/03/20 05:07:37;;;;;;;20.10;15.40;;;;;;;;;;727032;193;662748;-79
2023/03/20 05:10:03;;;;;;;22.10;14.40;;;;;;;;;;727587;189;635737;-78
2023/03/20 05:12:29;;;;;;;25.00;15.07;;;;;;;;;;731135;191;624700;-79
2023/03/20 05:14:55;;;;;;;26.20;16.40;;;;;;;;;;738925;190;807600;-79
2023/03/20 05:17:21;;;;;;;25.67;14.70;;;;;;;;;;729310;191;701748;-78
2023/03/20 05:19:47;;;;;;;24.27;16.17;;;;;;;;;;727697;191;661071;-79
2023/03/20 05:22:13;;;;;;;28.93;17.53;;;;;;;;;;734308;191;629242;-78
2023/03/20 05:24:39;;;;;;;31.90;18.17;;;;;;;;;;735433;190;642401;-79
2023/03/20 05:27:04;;;;;;;28.90;17.60;;;;;;;;;;729288;190;663978;-77
2023/03/20 05:29:30;;;;;;;24.80;16.30;;;;;;;;;;733224;191;990830;-78
2023/03/20 05:31:56;;;;;;;30.13;17.87;;;;;;;;;;725717;191;790524;-78
2023/03/20 05:34:22;;;;;;;32.80;19.20;;;;;;;;;;734968;191;644032;-79
2023/03/20 05:36:48;;;;;;;33.47;18.33;;;;;;;;;;735326;190;660598;-79
2023/03/20 05:39:14;;;;;;;26.60;16.70;;;;;;;;;;729943;190;629753;-76
2023/03/20 05:41:40;;;;;;;28.70;18.70;;;;;;;;;;730627;191;844619;-76
2023/03/20 05:44:05;;;;;;;30.53;16.80;;;;;;;;;;731526;190;739988;-78
2023/03/20 05:46:31;;;;;;;36.90;17.53;;;;;;;;;;729818;191;634547;-76
2023/03/20 05:48:57;;;;;;;24.50;15.27;;;;;;;;;;727404;190;628884;-76
2023/03/20 05:51:23;;;;;;;29.77;16.87;;;;;;;;;;732342;191;636412;-79
2023/03/20 05:53:49;;;;;;;24.87;16.87;;;;;;;;;;737395;191;619077;-80
2023/03/20 05:56:15;;;;;;;26.30;16.63;;;;;;;;;;726049;191;645110;-79
2023/03/20 05:58:41;;;;;;;27.80;18.70;;;;;;;;;;725150;195;639659;-78
2023/03/20 06:01:06;;;;;;;29.53;17.80;;;;;;;;;;727172;191;645116;-78
2023/03/20 06:03:32;;;;;;;28.20;18.30;;;;;;;;;;724974;192;652107;-77
2023/03/20 06:05:58;;;;;;;27.40;19.47;;;;;;;;;;732076;190;629556;-77
2023/03/20 06:08:24;;;;;;;33.30;20.50;;;;;;;;;;734721;191;629261;-78
2023/03/20 06:10:50;;;;;;;32.70;18.27;;;;;;;;;;732057;191;632219;-79
2023/03/20 06:13:16;;;;;;;33.27;18.17;;;;;;;;;;726798;190;624737;-80
2023/03/20 06:15:42;;;;;;;27.83;16.53;;;;;;;;;;726473;193;639847;-79
2023/03/20 06:18:07;;;;;;;31.30;20.40;;;;;;;;;;729984;195;638847;-78
2023/03/20 06:20:33;;;;;;;33.53;21.33;;;;;;;;;;727505;191;630204;-79
2023/03/20 06:22:59;;;;;;;26.63;17.77;;;;;;;;;;740217;185;628443;-80
2023/03/20 06:25:25;;;;;;;26.27;18.10;;;;;;;;;;739228;191;693273;-80
2023/03/20 06:27:51;;;;;;;28.87;16.57;;;;;;;;;;729597;195;619004;-80
2023/03/20 06:30:17;;;;;;;22.17;16.23;;;;;;;;;;725696;194;629240;-81
2023/03/20 06:32:43;;;;;;;29.77;15.67;;;;;;;;;;726399;190;650927;-80
2023/03/20 06:35:09;;;;;;;24.80;15.90;;;;;;;;;;731245;191;634160;-81
2023/03/20 06:37:35;;;;;;;21.90;15.30;;;;;;;;;;734361;191;641513;-78
2023/03/20 06:40:01;;;;;;;25.27;16.47;;;;;;;;;;725895;192;634013;-80
2023/03/20 06:42:26;;;;;;;27.23;16.57;;;;;;;;;;738884;191;686489;-78
2023/03/20 06:44:52;;;;;;;28.93;16.00;;;;;;;;;;730646;190;755329;-80
2023/03/20 06:47:18;;;;;;;25.43;16.00;;;;;;;;;;737224;191;640555;-80
2023/03/20 06:49:44;;;;;;;29.77;15.10;;;;;;;;;;738293;191;646019;-78
2023/03/20 06:52:18;;;;;;;22.27;15.37;;;;;;;;;;726393;190;653992;-80
2023/03/20 06:54:44;;;;;;;18.73;14.60;;;;;;;;;;728039;191;652525;-79
2023/03/20 06:57:10;;;;;;;18.77;14.20;;;;;;;;;;731164;190;634205;-80
2023/03/20 06:59:36;;;;;;;25.93;14.73;;;;;;;;;;730553;191;645324;-81
2023/03/20 07:02:02;;;;;;;18.43;12.93;;;;;;;;;;735004;190;698839;-80
2023/03/20 07:04:28;;;;;;;21.63;11.77;;;;;;;;;;730945;190;654241;-80
2023/03/20 07:06:53;;;;;;;18.80;12.60;;;;;;;;;;728524;190;628804;-80
2023/03/20 07:09:21;;;;;;;18.53;13.00;;;;;;;;;;733905;189;634589;-80
2023/03/20 07:11:45;;;;;;;17.40;12.90;;;;;;;;;;726872;191;638342;-77
2023/03/20 07:14:13;;;;;;;17.87;12.80;;;;;;;;;;729178;190;630783;-80
2023/03/20 07:16:39;;;;;;;20.53;13.43;;;;;;;;;;730702;190;637540;-78
2023/03/20 07:19:05;;;;;;;22.93;13.60;;;;;;;;;;728481;190;632476;-80
2023/03/20 07:21:31;;;;;;;19.50;12.63;;;;;;;;;;730266;191;654352;-79
2023/03/20 07:23:56;;;;;;;19.17;12.77;;;;;;;;;;744463;190;620272;-80
2023/03/20 07:26:22;;;;;;;19.03;13.07;;;;;;;;;;738223;190;619052;-80
2023/03/20 07:28:48;;;;;;;19.30;14.83;;;;;;;;;;728058;191;631344;-80
2023/03/20 07:31:15;;;;;;;20.40;15.40;;;;;;;;;;735984;190;628868;-80
2023/03/20 07:33:41;;;;;;;23.43;16.40;;;;;;;;;;728764;191;633011;-80
2023/03/20 07:36:07;;;;;;;22.23;15.83;;;;;;;;;;727499;191;634248;-80
2023/03/20 07:38:33;;;;;;;17.60;13.30;;;;;;;;;;739421;191;638960;-79
2023/03/20 07:40:58;;;;;;;20.07;13.10;;;;;;;;;;743252;191;631734;-79
2023/03/20 07:43:24;;;;;;;19.97;14.30;;;;;;;;;;730588;190;630700;-80
2023/03/20 07:45:50;;;;;;;21.92;14.18;;;;;;;;;;731032;191;638280;-78
2023/03/20 07:48:16;;;;;;;17.83;12.70;;;;;;;;;;740227;191;623695;-79
2023/03/20 07:50:42;;;;;;;17.17;13.30;;;;;;;;;;731042;190;1532731;-80
2023/03/20 07:53:08;;;;;;;19.00;14.03;;;;;;;;;;730519;191;691974;-77
2023/03/20 07:55:33;;;;;;;21.10;13.90;;;;;;;;;;730352;191;636790;-78
2023/03/20 07:57:59;;;;;;;18.50;14.27;;;;;;;;;;739529;191;638803;-79
2023/03/20 08:00:25;;;;;;;22.80;13.70;;;;;;;;;;727685;190;635830;-80
2023/03/20 08:02:51;;;;;;;21.53;14.53;;;;;;;;;;732045;191;706131;-78
2023/03/20 08:05:17;;;;;;;21.13;15.83;;;;;;;;;;741532;187;636158;-80
2023/03/20 08:07:44;;;;;;;21.03;15.37;;;;;;;;;;730319;191;651109;-79
2023/03/20 08:10:09;;;;;;;21.13;15.83;;;;;;;;;;733778;188;625674;-79
2023/03/20 08:12:35;;;;;;;24.40;16.30;;;;;;;;;;734833;190;636210;-77
2023/03/20 08:15:01;;;;;;;22.50;16.47;;;;;;;;;;733109;190;632477;-80
2023/03/20 08:17:27;;;;;;;23.23;15.70;;;;;;;;;;732652;190;637352;-79
2023/03/20 08:19:53;;;;;;;20.88;16.70;;;;;;;;;;733268;191;637606;-78
2023/03/20 08:22:19;;;;;;;22.93;15.63;;;;;;;;;;734317;190;633990;-77
2023/03/20 08:24:44;;;;;;;27.10;17.77;;;;;;;;;;733092;191;641295;-78
2023/03/20 08:27:10;;;;;;;23.07;16.73;;;;;;;;;;732537;191;643795;-79
2023/03/20 08:29:36;;;;;;;22.93;16.53;;;;;;;;;;733964;190;634152;-78
2023/03/20 08:32:02;;;;;;;23.50;16.47;;;;;;;;;;732506;190;639257;-78
2023/03/20 08:34:28;;;;;;;24.27;18.00;;;;;;;;;;733028;190;633409;-79
2023/03/20 08:36:54;;;;;;;22.37;17.93;;;;;;;;;;742563;190;642308;-79
2023/03/20 08:39:20;;;;;;;22.57;17.10;;;;;;;;;;730776;191;632098;-77
2023/03/20 08:41:46;;;;;;;23.27;15.83;;;;;;;;;;733312;190;640904;-74
2023/03/20 08:44:11;;;;;;;24.63;17.80;;;;;;;;;;732789;191;627141;-80
2023/03/20 08:46:38;;;;;;;24.87;17.60;;;;;;;;;;730797;191;663383;-79
2023/03/20 08:49:04;;;;;;;24.43;18.00;;;;;;;;;;733153;191;778384;-80
2023/03/20 08:51:29;;;;;;;20.77;17.10;;;;;;;;;;731373;191;624898;-79
2023/03/20 08:53:55;;;;;;;25.23;18.80;;;;;;;;;;729704;190;631216;-81
2023/03/20 08:56:21;;;;;;;27.07;19.83;;;;;;;;;;731514;191;624726;-81
2023/03/20 08:58:47;;;;;;;29.40;20.63;;;;;;;;;;737184;191;630225;-80
2023/03/20 09:01:14;;;;;;;25.47;18.80;;;;;;;;;;736052;190;630818;-80
2023/03/20 09:03:38;;;;;;;27.83;19.20;;;;;;;;;;734373;191;623699;-80
2023/03/20 09:06:04;;;;;;;28.90;19.50;;;;;;;;;;737873;191;637714;-80
2023/03/20 09:08:30;;;;;;;28.10;19.50;;;;;;;;;;739012;190;629600;-81
2023/03/20 09:10:56;;;;;;;27.50;21.50;;;;;;;;;;725272;193;628690;-79
2023/03/20 09:13:22;;;;;;;28.73;19.90;;;;;;;;;;726538;191;635192;-80
2023/03/20 09:15:48;;;;;;;30.13;22.50;;;;;;;;;;726860;192;634967;-79
2023/03/20 09:18:14;;;;;;;24.67;19.90;;;;;;;;;;730673;191;633913;-81
2023/03/20 09:20:39;;;;;;;34.47;23.07;;;;;;;;;;726686;191;622701;-80
2023/03/20 09:23:05;;;;;;;28.80;22.80;;;;;;;;;;726048;191;658581;-82
2023/03/20 09:25:31;;;;;;;25.30;20.13;;;;;;;;;;729089;195;642747;-81
2023/03/20 09:27:57;;;;;;;28.20;20.10;;;;;;;;;;726687;191;635419;-81
2023/03/20 09:30:23;;;;;;;32.73;22.43;;;;;;;;;;726990;194;634514;-83
2023/03/20 09:32:49;;;;;;;29.50;23.33;;;;;;;;;;738452;190;640309;-81
2023/03/20 09:35:15;;;;;;;29.43;21.90;;;;;;;;;;737758;191;620573;-81
2023/03/20 09:37:40;;;;;;;29.43;23.50;;;;;;;;;;727098;191;619880;-80
2023/03/20 09:40:07;;;;;;;28.37;21.90;;;;;;;;;;728326;192;625971;-81
2023/03/20 09:42:38;;;;;;;32.70;22.67;;;;;;;;;;730429;193;638046;-81
2023/03/20 09:45:07;;;;;;;32.07;23.93;;;;;;;;;;728098;193;639468;-82
2023/03/20 09:47:33;;;;;;;34.30;24.70;;;;;;;;;;732448;189;630246;-81
2023/03/20 09:50:20;;;;;;;30.37;22.90;;;;;;;;;;746298;190;637077;-80
2023/03/20 09:52:41;;;;;;;26.37;21.97;;;;;;;;;;722477;193;746356;-78
2023/03/20 09:55:07;;;;;;;29.20;22.63;;;;;;;;;;730220;190;921159;-78
2023/03/20 09:57:35;;;;;;;24.23;19.70;;;;;;;;;;729642;193;731483;-81
2023/03/20 10:00:01;;;;;;;31.27;21.97;;;;;;;;;;729017;191;649246;-81
2023/03/20 10:02:29;;;;;;;29.27;21.57;;;;;;;;;;713110;197;645516;-81
2023/03/20 10:04:55;;;;;;;35.20;22.47;;;;;;;;;;717807;197;729832;-82
2023/03/20 10:07:21;;;;;;;25.40;22.07;;;;;;;;;;717352;195;642184;-79
2023/03/20 10:09:47;;;;;;;28.83;21.67;;;;;;;;;;722251;197;677556;-81
2023/03/20 10:12:19;;;;;;;27.10;22.03;;;;;;;;;;720666;191;631381;-79
2023/03/20 10:15:00;;;;;;;28.90;20.37;;;;;;;;;;731925;191;636482;-78
2023/03/20 10:17:45;;;;;;;29.57;22.87;;;;;;;;;;729386;193;727738;-80
2023/03/20 10:20:13;;;;;;;27.40;22.40;;;;;;;;;;732240;191;642359;-80
2023/03/20 10:22:40;;;;;;;29.60;22.57;;;;;;;;;;735075;191;629918;-78
2023/03/20 10:25:06;;;;;;;26.60;18.00;;;;;;;;;;735394;191;628366;-81
2023/03/20 10:27:32;;;;;;;23.67;19.70;;;;;;;;;;726689;191;628384;-81
2023/03/20 10:30:03;;;;;;;24.13;18.50;;;;;;;;;;735281;191;671056;-80
2023/03/20 10:32:35;;;;;;;22.50;19.13;;;;;;;;;;729242;191;744534;-80
2023/03/20 10:35:01;;;;;;;24.67;19.03;;;;;;;;;;741860;190;630979;-80
2023/03/20 10:37:29;;;;;;;25.27;18.77;;;;;;;;;;736734;191;636577;-80
2023/03/20 10:40:05;;;;;;;27.37;19.33;;;;;;;;;;736469;191;633036;-81
2023/03/20 10:42:31;;;;;;;24.30;19.07;;;;;;;;;;734089;191;731147;-80
2023/03/20 10:44:58;;;;;;;25.83;17.17;;;;;;;;;;728345;195;711516;-80
2023/03/20 10:47:25;;;;;;;21.73;16.57;;;;;;;;;;726072;191;624950;-80
2023/03/20 10:49:51;;;;;;;26.53;18.57;;;;;;;;;;726486;191;635632;-81
2023/03/20 10:52:17;;;;;;;24.77;18.80;;;;;;;;;;728410;192;625600;-81
2023/03/20 10:54:43;;;;;;;24.30;17.87;;;;;;;;;;738254;190;627146;-82
2023/03/20 10:57:09;;;;;;;22.70;18.27;;;;;;;;;;733026;191;633900;-78
2023/03/20 10:59:37;;;;;;;23.67;17.60;;;;;;;;;;726645;191;654724;-79
2023/03/20 11:02:03;;;;;;;24.77;18.47;;;;;;;;;;741636;191;626301;-82
2023/03/20 11:04:28;;;;;;;30.73;20.43;;;;;;;;;;738954;188;653171;-82
2023/03/20 11:06:54;;;;;;;28.17;20.13;;;;;;;;;;740479;189;645634;-81
2023/03/20 11:09:20;;;;;;;24.73;19.80;;;;;;;;;;741496;190;650764;-78
2023/03/20 11:11:46;;;;;;;23.43;19.17;;;;;;;;;;743913;190;626437;-79
2023/03/20 11:14:21;;;;;;;28.80;21.40;;;;;;;;;;731054;190;675579;-78
2023/03/20 11:16:48;;;;;;;27.80;21.10;;;;;;;;;;730644;191;623123;-80
2023/03/20 11:19:14;;;;;;;28.60;20.65;;;;;;;;;;730906;191;713981;-80
2023/03/20 11:21:44;;;;;;;26.33;21.43;;;;;;;;;;727921;194;619070;-80
2023/03/20 11:24:15;;;;;;;30.03;20.87;;;;;;;;;;733082;191;667958;-81
2023/03/20 11:26:41;;;;;;;24.73;19.40;;;;;;;;;;730382;191;765779;-81
2023/03/20 11:29:07;;;;;;;27.10;20.70;;;;;;;;;;732738;191;635694;-79
2023/03/20 11:31:33;;;;;;;30.37;22.23;;;;;;;;;;733300;190;667706;-80
2023/03/20 11:34:15;;;;;;;25.27;20.37;;;;;;;;;;730695;190;635395;-79
2023/03/20 11:36:45;;;;;;;29.50;21.20;;;;;;;;;;738522;189;639705;-80
2023/03/20 11:39:12;;;;;;;23.90;17.63;;;;;;;;;;728222;191;662916;-79
2023/03/20 11:41:37;;;;;;;22.60;16.37;;;;;;;;;;728736;191;631703;-79
2023/03/20 11:44:03;;;;;;;21.87;17.60;;;;;;;;;;732659;191;658111;-80
2023/03/20 11:46:29;;;;;;;18.83;15.80;;;;;;;;;;725351;195;621588;-81
2023/03/20 11:49:01;;;;;;;22.67;16.13;;;;;;;;;;734819;191;733381;-80
2023/03/20 11:51:27;;;;;;;20.13;14.70;;;;;;;;;;739952;191;634845;-81
2023/03/20 11:53:54;;;;;;;15.73;11.13;;;;;;;;;;734101;191;747204;-80
2023/03/20 11:56:20;;;;;;;17.37;13.80;;;;;;;;;;725886;191;758790;-79
2023/03/20 11:58:55;;;;;;;16.77;9.73;;;;;;;;;;727489;190;918872;-81
2023/03/20 12:01:21;;;;;;;14.50;10.23;;;;;;;;;;734908;191;627069;-79
2023/03/20 12:03:50;;;;;;;14.37;10.50;;;;;;;;;;729699;189;1429039;-77
2023/03/20 12:06:18;;;;;;;16.83;12.50;;;;;;;;;;729350;190;628703;-79
2023/03/20 12:08:45;;;;;;;14.43;10.90;;;;;;;;;;732238;190;754016;-77
2023/03/20 12:11:14;;;;;;;17.17;10.70;;;;;;;;;;732329;190;739053;-78
2023/03/20 12:13:39;;;;;;;14.20;9.83;;;;;;;;;;736377;190;648964;-80
2023/03/20 12:16:05;;;;;;;11.90;9.38;;;;;;;;;;730059;190;915698;-81
2023/03/20 12:18:34;;;;;;;11.93;9.73;;;;;;;;;;737489;190;617561;-79
2023/03/20 12:21:02;;;;;;;14.07;10.67;;;;;;;;;;736993;190;651523;-80
2023/03/20 12:23:29;;;;;;;14.80;10.30;;;;;;;;;;726196;190;628620;-79
2023/03/20 12:26:01;;;;;;;17.15;11.05;;;;;;;;;;728357;195;632775;-82
2023/03/20 12:28:27;;;;;;;10.77;9.30;;;;;;;;;;728364;191;623171;-79
2023/03/20 12:30:54;;;;;;;12.43;9.50;;;;;;;;;;738075;191;629904;-81
2023/03/20 12:33:19;;;;;;;13.10;10.23;;;;;;;;;;734584;191;630072;-81
2023/03/20 12:35:46;;;;;;;12.10;9.90;;;;;;;;;;730355;191;616250;-80
2023/03/20 12:38:11;;;;;;;14.43;9.40;;;;;;;;;;726529;191;625179;-79
2023/03/20 12:40:37;;;;;;;10.30;7.50;;;;;;;;;;730110;191;630731;-78
2023/03/20 12:43:03;;;;;;;12.60;7.30;;;;;;;;;;725065;193;636753;-81
2023/03/20 12:45:29;;;;;;;8.83;6.60;;;;;;;;;;728183;195;654473;-81
2023/03/20 12:47:57;;;;;;;9.83;7.67;;;;;;;;;;724644;191;654603;-81
2023/03/20 12:50:26;;;;;;;14.13;8.10;;;;;;;;;;726085;194;633635;-79
2023/03/20 12:52:55;;;;;;;10.30;8.33;;;;;;;;;;729684;193;637732;-80
2023/03/20 12:55:24;;;;;;;9.57;8.13;;;;;;;;;;729871;190;628026;-79
2023/03/20 12:57:51;;;;;;;10.17;8.10;;;;;;;;;;726247;194;634501;-81
2023/03/20 13:00:27;;;;;;;14.00;9.20;;;;;;;;;;726457;191;623386;-81
2023/03/20 13:03:03;;;;;;;14.32;9.60;;;;;;;;;;726831;195;630336;-81
2023/03/20 13:05:35;;;;;;;14.60;8.27;;;;;;;;;;742168;191;646368;-81
2023/03/20 13:08:07;;;;;;;11.63;7.77;;;;;;;;;;743233;190;630741;-81
2023/03/20 13:10:33;;;;;;;10.17;8.30;;;;;;;;;;727151;191;616496;-81
2023/03/20 13:13:13;;;;;;;9.67;8.40;;;;;;;;;;726831;191;629075;-81
2023/03/20 13:15:41;;;;;;;12.10;9.30;;;;;;;;;;738290;189;624506;-80
2023/03/20 13:18:13;;;;;;;13.37;9.60;;;;;;;;;;742131;191;659421;-80
2023/03/20 13:20:53;;;;;;;11.33;7.77;;;;;;;;;;730090;191;624676;-79
2023/03/20 13:23:23;;;;;;;12.43;8.77;;;;;;;;;;731325;190;675398;-82
2023/03/20 13:25:55;;;;;;;12.10;7.67;;;;;;;;;;726211;192;631998;-80
2023/03/20 13:28:22;;;;;;;13.07;8.43;;;;;;;;;;727086;191;628388;-80
2023/03/20 13:31:06;;;;;;;10.50;8.47;;;;;;;;;;741353;188;628553;-80
2023/03/20 13:33:35;;;;;;;9.77;7.60;;;;;;;;;;738657;190;626672;-81
2023/03/20 13:36:15;;;;;;;15.07;7.53;;;;;;;;;;728397;194;634110;-80
2023/03/20 13:38:41;;;;;;;10.57;7.20;;;;;;;;;;730309;191;658109;-79
2023/03/20 13:41:08;;;;;;;5.50;4.37;;;;;;;;;;727093;194;668559;-80
2023/03/20 13:43:33;;;;;;;6.00;4.90;;;;;;;;;;728372;191;635432;-81
2023/03/20 13:45:59;;;;;;;7.63;5.87;;;;;;;;;;741692;191;631578;-81
2023/03/20 13:48:31;;;;;;;10.90;6.37;;;;;;;;;;738262;191;692350;-82
2023/03/20 13:50:58;;;;;;;9.07;6.87;;;;;;;;;;739893;185;634920;-81
2023/03/20 13:53:23;;;;;;;9.77;6.20;;;;;;;;;;738560;190;633052;-79
2023/03/20 13:55:49;;;;;;;8.53;6.00;;;;;;;;;;737664;191;635994;-79
2023/03/20 13:58:18;;;;;;;9.10;6.90;;;;;;;;;;736868;191;623016;-79
2023/03/20 14:00:47;;;;;;;9.83;6.60;;;;;;;;;;732573;188;631543;-80
2023/03/20 14:03:14;;;;;;;9.60;7.47;;;;;;;;;;730185;193;663771;-81
2023/03/20 14:05:39;;;;;;;8.70;6.87;;;;;;;;;;724510;192;658590;-81